sensor_id;sensor_type;location;lat;lon;timestamp;temperature;humidity
6738;DHT22;3406;49.902;8.596;2023-03-14T00:01:10;11.30;99.90
6738;DHT22;3406;49.902;8.596;2023-03-14T00:03:37;11.30;99.90
6738;DHT22;3406;49.902;8.596;2023-03-14T00:06:04;11.40;99.90
6738;DHT22;3406;49.902;8.596;2023-03-14T00:08:33;11.40;99.90
6738;DHT22;3406;49.902;8.596;2023-03-14T00:11:04;11.50;99.90
6738;DHT22;3406;49.902;8.596;2023-03-14T00:13:31;11.40;99.90
6738;DHT22;3406;49.902;8.596;2023-03-14T00:16:02;11.40;99.90
6738;DHT22;3406;49.902;8.596;2023-03-14T00:18:28;11.40;99.90
6738;DHT22;3406;49.902;8.596;2023-03-14T00:20:57;11.40;99.90
6738;DHT22;3406;49.902;8.596;2023-03-14T00:23:24;11.40;99.90
6738;DHT22;3406;49.902;8.596;2023-03-14T00:25:52;11.40;99.90
6738;DHT22;3406;49.902;8.596;2023-03-14T00:28:18;11.40;99.90
6738;DHT22;3406;49.902;8.596;2023-03-14T00:30:45;11.40;99.90
6738;DHT22;3406;49.902;8.596;2023-03-14T00:33:12;11.40;99.90
6738;DHT22;3406;49.902;8.596;2023-03-14T00:35:38;11.40;99.90
6738;DHT22;3406;49.902;8.596;2023-03-14T00:38:05;11.40;99.90
6738;DHT22;3406;49.902;8.596;2023-03-14T00:40:32;11.40;99.90
6738;DHT22;3406;49.902;8.596;2023-03-14T00:43:00;11.40;99.90
6738;DHT22;3406;49.902;8.596;2023-03-14T00:45:26;11.40;99.90
6738;DHT22;3406;49.902;8.596;2023-03-14T00:47:53;11.50;99.90
6738;DHT22;3406;49.902;8.596;2023-03-14T00:50:19;11.40;99.90
6738;DHT22;3406;49.902;8.596;2023-03-14T00:52:46;11.40;99.90
6738;DHT22;3406;49.902;8.596;2023-03-14T00:55:14;11.40;99.90
6738;DHT22;3406;49.902;8.596;2023-03-14T00:57:40;11.40;99.90
6738;DHT22;3406;49.902;8.596;2023-03-14T01:00:10;11.40;99.90
6738;DHT22;3406;49.902;8.596;2023-03-14T01:02:38;11.40;99.90
6738;DHT22;3406;49.902;8.596;2023-03-14T01:05:05;11.40;99.90
6738;DHT22;3406;49.902;8.596;2023-03-14T01:07:33;11.30;99.90
6738;DHT22;3406;49.902;8.596;2023-03-14T01:09:59;11.30;99.90
6738;DHT22;3406;49.902;8.596;2023-03-14T01:12:27;11.30;99.90
6738;DHT22;3406;49.902;8.596;2023-03-14T01:14:53;11.30;99.90
6738;DHT22;3406;49.902;8.596;2023-03-14T01:17:21;11.30;99.90
6738;DHT22;3406;49.902;8.596;2023-03-14T01:19:48;11.30;99.90
6738;DHT22;3406;49.902;8.596;2023-03-14T01:22:15;11.30;99.90
6738;DHT22;3406;49.902;8.596;2023-03-14T01:24:42;11.30;99.90
6738;DHT22;3406;49.902;8.596;2023-03-14T01:27:08;11.30;99.90
6738;DHT22;3406;49.902;8.596;2023-03-14T01:29:35;11.30;99.90
6738;DHT22;3406;49.902;8.596;2023-03-14T01:32:01;11.30;99.90
6738;DHT22;3406;49.902;8.596;2023-03-14T01:34:29;11.30;99.90
6738;DHT22;3406;49.902;8.596;2023-03-14T01:36:56;11.40;99.90
6738;DHT22;3406;49.902;8.596;2023-03-14T01:39:23;11.40;99.90
6738;DHT22;3406;49.902;8.596;2023-03-14T01:41:49;11.40;99.90
6738;DHT22;3406;49.902;8.596;2023-03-14T01:44:16;11.50;99.90
6738;DHT22;3406;49.902;8.596;2023-03-14T01:46:43;11.50;99.90
6738;DHT22;3406;49.902;8.596;2023-03-14T01:49:19;11.50;99.90
6738;DHT22;3406;49.902;8.596;2023-03-14T01:51:51;11.50;99.90
6738;DHT22;3406;49.902;8.596;2023-03-14T01:54:24;11.60;99.90
6738;DHT22;3406;49.902;8.596;2023-03-14T01:56:54;11.60;99.90
6738;DHT22;3406;49.902;8.596;2023-03-14T01:59:22;11.60;99.90
6738;DHT22;3406;49.902;8.596;2023-03-14T02:01:50;11.60;99.90
6738;DHT22;3406;49.902;8.596;2023-03-14T02:04:18;11.70;99.90
6738;DHT22;3406;49.902;8.596;2023-03-14T02:06:51;11.70;99.90
6738;DHT22;3406;49.902;8.596;2023-03-14T02:09:20;11.70;99.90
6738;DHT22;3406;49.902;8.596;2023-03-14T02:11:47;11.70;99.90
6738;DHT22;3406;49.902;8.596;2023-03-14T02:14:25;11.70;99.90
6738;DHT22;3406;49.902;8.596;2023-03-14T02:16:54;11.70;99.90
6738;DHT22;3406;49.902;8.596;2023-03-14T02:19:28;11.70;99.90
6738;DHT22;3406;49.902;8.596;2023-03-14T02:22:04;11.70;99.90
6738;DHT22;3406;49.902;8.596;2023-03-14T02:24:38;11.70;99.90
6738;DHT22;3406;49.902;8.596;2023-03-14T02:27:11;11.70;99.90
6738;DHT22;3406;49.902;8.596;2023-03-14T02:29:43;11.70;99.90
6738;DHT22;3406;49.902;8.596;2023-03-14T02:32:12;11.70;99.90
6738;DHT22;3406;49.902;8.596;2023-03-14T02:34:41;11.70;99.90
6738;DHT22;3406;49.902;8.596;2023-03-14T02:37:09;11.70;99.90
6738;DHT22;3406;49.902;8.596;2023-03-14T02:39:39;11.70;99.70
6738;DHT22;3406;49.902;8.596;2023-03-14T02:42:07;11.70;99.60
6738;DHT22;3406;49.902;8.596;2023-03-14T02:44:34;11.70;99.60
6738;DHT22;3406;49.902;8.596;2023-03-14T02:47:02;11.70;99.50
6738;DHT22;3406;49.902;8.596;2023-03-14T02:49:32;11.70;99.50
6738;DHT22;3406;49.902;8.596;2023-03-14T02:51:59;11.70;99.50
6738;DHT22;3406;49.902;8.596;2023-03-14T02:54:26;11.70;99.30
6738;DHT22;3406;49.902;8.596;2023-03-14T02:56:53;11.60;99.30
6738;DHT22;3406;49.902;8.596;2023-03-14T02:59:21;11.60;99.20
6738;DHT22;3406;49.902;8.596;2023-03-14T03:01:47;11.60;99.20
6738;DHT22;3406;49.902;8.596;2023-03-14T03:04:14;11.60;99.10
6738;DHT22;3406;49.902;8.596;2023-03-14T03:06:40;11.50;99.10
6738;DHT22;3406;49.902;8.596;2023-03-14T03:09:07;11.50;99.10
6738;DHT22;3406;49.902;8.596;2023-03-14T03:11:34;11.50;99.10
6738;DHT22;3406;49.902;8.596;2023-03-14T03:14:01;11.50;99.20
6738;DHT22;3406;49.902;8.596;2023-03-14T03:16:29;11.50;99.30
6738;DHT22;3406;49.902;8.596;2023-03-14T03:18:55;11.50;99.30
6738;DHT22;3406;49.902;8.596;2023-03-14T03:21:22;11.50;99.30
6738;DHT22;3406;49.902;8.596;2023-03-14T03:23:49;11.50;99.40
6738;DHT22;3406;49.902;8.596;2023-03-14T03:26:16;11.50;99.40
6738;DHT22;3406;49.902;8.596;2023-03-14T03:28:42;11.50;99.40
6738;DHT22;3406;49.902;8.596;2023-03-14T03:31:10;11.50;99.40
6738;DHT22;3406;49.902;8.596;2023-03-14T03:33:39;11.50;99.40
6738;DHT22;3406;49.902;8.596;2023-03-14T03:36:07;11.50;99.40
6738;DHT22;3406;49.902;8.596;2023-03-14T03:38:33;11.50;99.50
6738;DHT22;3406;49.902;8.596;2023-03-14T03:41:02;11.50;99.50
6738;DHT22;3406;49.902;8.596;2023-03-14T03:43:29;11.50;99.50
6738;DHT22;3406;49.902;8.596;2023-03-14T03:45:56;11.50;99.40
6738;DHT22;3406;49.902;8.596;2023-03-14T03:48:23;11.50;99.20
6738;DHT22;3406;49.902;8.596;2023-03-14T03:50:51;11.40;99.10
6738;DHT22;3406;49.902;8.596;2023-03-14T03:53:17;11.40;99.00
6738;DHT22;3406;49.902;8.596;2023-03-14T03:55:44;11.40;99.00
6738;DHT22;3406;49.902;8.596;2023-03-14T03:58:11;11.40;98.90
6738;DHT22;3406;49.902;8.596;2023-03-14T04:00:37;11.40;98.80
6738;DHT22;3406;49.902;8.596;2023-03-14T04:03:05;11.40;98.70
6738;DHT22;3406;49.902;8.596;2023-03-14T04:05:32;11.50;98.70
6738;DHT22;3406;49.902;8.596;2023-03-14T04:08:01;11.50;98.60
6738;DHT22;3406;49.902;8.596;2023-03-14T04:10:27;11.50;98.40
6738;DHT22;3406;49.902;8.596;2023-03-14T04:12:54;11.50;98.30
6738;DHT22;3406;49.902;8.596;2023-03-14T04:15:21;11.50;98.00
6738;DHT22;3406;49.902;8.596;2023-03-14T04:17:47;11.50;97.80
6738;DHT22;3406;49.902;8.596;2023-03-14T04:20:14;11.50;97.40
6738;DHT22;3406;49.902;8.596;2023-03-14T04:22:41;11.60;97.20
6738;DHT22;3406;49.902;8.596;2023-03-14T04:25:09;11.60;96.90
6738;DHT22;3406;49.902;8.596;2023-03-14T04:27:36;11.60;96.80
6738;DHT22;3406;49.902;8.596;2023-03-14T04:30:03;11.60;96.50
6738;DHT22;3406;49.902;8.596;2023-03-14T04:32:29;11.50;96.20
6738;DHT22;3406;49.902;8.596;2023-03-14T04:34:56;11.60;95.90
6738;DHT22;3406;49.902;8.596;2023-03-14T04:37:23;11.50;95.50
6738;DHT22;3406;49.902;8.596;2023-03-14T04:39:49;11.50;95.30
6738;DHT22;3406;49.902;8.596;2023-03-14T04:42:17;11.50;95.20
6738;DHT22;3406;49.902;8.596;2023-03-14T04:44:44;11.50;95.00
6738;DHT22;3406;49.902;8.596;2023-03-14T04:47:12;11.60;94.80
6738;DHT22;3406;49.902;8.596;2023-03-14T04:49:39;11.60;94.60
6738;DHT22;3406;49.902;8.596;2023-03-14T04:52:05;11.60;94.40
6738;DHT22;3406;49.902;8.596;2023-03-14T04:54:32;11.60;94.30
6738;DHT22;3406;49.902;8.596;2023-03-14T04:56:58;11.60;94.20
6738;DHT22;3406;49.902;8.596;2023-03-14T04:59:26;11.60;93.90
6738;DHT22;3406;49.902;8.596;2023-03-14T05:01:53;11.60;93.80
6738;DHT22;3406;49.902;8.596;2023-03-14T05:04:20;11.60;93.60
6738;DHT22;3406;49.902;8.596;2023-03-14T05:06:46;11.60;93.60
6738;DHT22;3406;49.902;8.596;2023-03-14T05:09:13;11.60;93.50
6738;DHT22;3406;49.902;8.596;2023-03-14T05:11:40;11.60;93.40
6738;DHT22;3406;49.902;8.596;2023-03-14T05:14:07;11.60;93.40
6738;DHT22;3406;49.902;8.596;2023-03-14T05:16:35;11.60;93.30
6738;DHT22;3406;49.902;8.596;2023-03-14T05:19:01;11.60;93.30
6738;DHT22;3406;49.902;8.596;2023-03-14T05:21:28;11.60;93.20
6738;DHT22;3406;49.902;8.596;2023-03-14T05:23:55;11.60;93.00
6738;DHT22;3406;49.902;8.596;2023-03-14T05:26:21;11.60;92.90
6738;DHT22;3406;49.902;8.596;2023-03-14T05:28:48;11.60;92.80
6738;DHT22;3406;49.902;8.596;2023-03-14T05:31:15;11.60;92.60
6738;DHT22;3406;49.902;8.596;2023-03-14T05:33:42;11.60;92.60
6738;DHT22;3406;49.902;8.596;2023-03-14T05:36:09;11.60;92.50
6738;DHT22;3406;49.902;8.596;2023-03-14T05:38:36;11.60;92.40
6738;DHT22;3406;49.902;8.596;2023-03-14T05:41:03;11.60;92.40
6738;DHT22;3406;49.902;8.596;2023-03-14T05:43:30;11.50;92.40
6738;DHT22;3406;49.902;8.596;2023-03-14T05:45:56;11.50;92.30
6738;DHT22;3406;49.902;8.596;2023-03-14T05:48:23;11.50;92.30
6738;DHT22;3406;49.902;8.596;2023-03-14T05:50:56;11.50;92.60
6738;DHT22;3406;49.902;8.596;2023-03-14T05:53:22;11.50;92.30
6738;DHT22;3406;49.902;8.596;2023-03-14T05:55:51;11.50;92.30
6738;DHT22;3406;49.902;8.596;2023-03-14T05:58:18;11.50;92.30
6738;DHT22;3406;49.902;8.596;2023-03-14T06:00:44;11.50;92.40
6738;DHT22;3406;49.902;8.596;2023-03-14T06:03:11;11.50;92.40
6738;DHT22;3406;49.902;8.596;2023-03-14T06:05:38;11.40;92.30
6738;DHT22;3406;49.902;8.596;2023-03-14T06:08:06;11.50;92.40
6738;DHT22;3406;49.902;8.596;2023-03-14T06:10:34;11.50;92.30
6738;DHT22;3406;49.902;8.596;2023-03-14T06:13:01;11.40;92.20
6738;DHT22;3406;49.902;8.596;2023-03-14T06:15:27;11.40;92.20
6738;DHT22;3406;49.902;8.596;2023-03-14T06:17:54;11.40;92.10
6738;DHT22;3406;49.902;8.596;2023-03-14T06:20:21;11.40;92.10
6738;DHT22;3406;49.902;8.596;2023-03-14T06:22:48;11.50;92.00
6738;DHT22;3406;49.902;8.596;2023-03-14T06:25:16;11.50;92.00
6738;DHT22;3406;49.902;8.596;2023-03-14T06:27:43;11.50;91.90
6738;DHT22;3406;49.902;8.596;2023-03-14T06:30:10;11.50;91.90
6738;DHT22;3406;49.902;8.596;2023-03-14T06:32:37;11.50;91.90
6738;DHT22;3406;49.902;8.596;2023-03-14T06:35:04;11.50;91.80
6738;DHT22;3406;49.902;8.596;2023-03-14T06:37:31;11.50;91.80
6738;DHT22;3406;49.902;8.596;2023-03-14T06:39:57;11.50;91.80
6738;DHT22;3406;49.902;8.596;2023-03-14T06:42:25;11.50;91.70
6738;DHT22;3406;49.902;8.596;2023-03-14T06:44:52;11.50;91.70
6738;DHT22;3406;49.902;8.596;2023-03-14T06:47:19;11.50;91.70
6738;DHT22;3406;49.902;8.596;2023-03-14T06:49:45;11.50;91.70
6738;DHT22;3406;49.902;8.596;2023-03-14T06:52:12;11.50;91.60
6738;DHT22;3406;49.902;8.596;2023-03-14T06:54:38;11.50;91.60
6738;DHT22;3406;49.902;8.596;2023-03-14T06:57:05;11.50;91.50
6738;DHT22;3406;49.902;8.596;2023-03-14T06:59:33;11.50;91.50
6738;DHT22;3406;49.902;8.596;2023-03-14T07:02:00;11.50;91.40
6738;DHT22;3406;49.902;8.596;2023-03-14T07:04:26;11.50;91.30
6738;DHT22;3406;49.902;8.596;2023-03-14T07:06:54;11.60;91.30
6738;DHT22;3406;49.902;8.596;2023-03-14T07:09:21;11.50;91.10
6738;DHT22;3406;49.902;8.596;2023-03-14T07:11:47;11.60;91.10
6738;DHT22;3406;49.902;8.596;2023-03-14T07:14:14;11.60;91.00
6738;DHT22;3406;49.902;8.596;2023-03-14T07:16:42;11.60;90.90
6738;DHT22;3406;49.902;8.596;2023-03-14T07:19:08;11.60;90.80
6738;DHT22;3406;49.902;8.596;2023-03-14T07:21:35;11.70;90.70
6738;DHT22;3406;49.902;8.596;2023-03-14T07:24:02;11.70;90.70
6738;DHT22;3406;49.902;8.596;2023-03-14T07:26:29;11.70;90.60
6738;DHT22;3406;49.902;8.596;2023-03-14T07:28:55;11.70;90.50
6738;DHT22;3406;49.902;8.596;2023-03-14T07:31:22;11.70;90.40
6738;DHT22;3406;49.902;8.596;2023-03-14T07:33:50;11.70;90.30
6738;DHT22;3406;49.902;8.596;2023-03-14T07:36:17;11.70;90.20
6738;DHT22;3406;49.902;8.596;2023-03-14T07:38:44;11.70;90.20
6738;DHT22;3406;49.902;8.596;2023-03-14T07:41:10;11.70;90.10
6738;DHT22;3406;49.902;8.596;2023-03-14T07:43:37;11.70;90.10
6738;DHT22;3406;49.902;8.596;2023-03-14T07:46:04;11.70;90.40
6738;DHT22;3406;49.902;8.596;2023-03-14T07:48:31;11.70;90.00
6738;DHT22;3406;49.902;8.596;2023-03-14T07:50:59;11.70;90.10
6738;DHT22;3406;49.902;8.596;2023-03-14T07:53:26;11.80;90.10
6738;DHT22;3406;49.902;8.596;2023-03-14T07:55:53;11.80;90.10
6738;DHT22;3406;49.902;8.596;2023-03-14T07:58:20;11.80;90.00
6738;DHT22;3406;49.902;8.596;2023-03-14T08:00:48;11.90;90.40
6738;DHT22;3406;49.902;8.596;2023-03-14T08:03:15;11.90;90.00
6738;DHT22;3406;49.902;8.596;2023-03-14T08:05:42;11.90;90.00
6738;DHT22;3406;49.902;8.596;2023-03-14T08:08:10;11.90;89.90
6738;DHT22;3406;49.902;8.596;2023-03-14T08:10:36;11.90;89.90
6738;DHT22;3406;49.902;8.596;2023-03-14T08:13:03;11.90;90.00
6738;DHT22;3406;49.902;8.596;2023-03-14T08:15:30;11.90;90.10
6738;DHT22;3406;49.902;8.596;2023-03-14T08:17:57;11.90;90.10
6738;DHT22;3406;49.902;8.596;2023-03-14T08:20:26;11.90;90.20
6738;DHT22;3406;49.902;8.596;2023-03-14T08:22:55;11.90;90.30
6738;DHT22;3406;49.902;8.596;2023-03-14T08:25:23;11.90;90.40
6738;DHT22;3406;49.902;8.596;2023-03-14T08:27:50;12.00;90.40
6738;DHT22;3406;49.902;8.596;2023-03-14T08:30:18;12.00;90.40
6738;DHT22;3406;49.902;8.596;2023-03-14T08:32:45;12.00;90.40
6738;DHT22;3406;49.902;8.596;2023-03-14T08:35:12;12.10;90.50
6738;DHT22;3406;49.902;8.596;2023-03-14T08:37:39;12.10;90.50
6738;DHT22;3406;49.902;8.596;2023-03-14T08:40:07;12.20;90.50
6738;DHT22;3406;49.902;8.596;2023-03-14T08:42:37;12.20;90.40
6738;DHT22;3406;49.902;8.596;2023-03-14T08:45:05;12.20;90.40
6738;DHT22;3406;49.902;8.596;2023-03-14T08:47:32;12.40;90.40
6738;DHT22;3406;49.902;8.596;2023-03-14T08:49:58;12.40;90.20
6738;DHT22;3406;49.902;8.596;2023-03-14T08:52:25;12.50;90.10
6738;DHT22;3406;49.902;8.596;2023-03-14T08:54:52;12.50;89.90
6738;DHT22;3406;49.902;8.596;2023-03-14T08:57:18;12.50;89.60
6738;DHT22;3406;49.902;8.596;2023-03-14T08:59:48;12.60;89.50
6738;DHT22;3406;49.902;8.596;2023-03-14T09:02:15;12.60;89.40
6738;DHT22;3406;49.902;8.596;2023-03-14T09:04:41;12.60;89.30
6738;DHT22;3406;49.902;8.596;2023-03-14T09:07:08;12.60;89.10
6738;DHT22;3406;49.902;8.596;2023-03-14T09:09:35;12.60;89.00
6738;DHT22;3406;49.902;8.596;2023-03-14T09:12:01;12.50;88.70
6738;DHT22;3406;49.902;8.596;2023-03-14T09:14:28;12.50;88.60
6738;DHT22;3406;49.902;8.596;2023-03-14T09:16:56;12.60;88.90
6738;DHT22;3406;49.902;8.596;2023-03-14T09:19:23;12.70;89.10
6738;DHT22;3406;49.902;8.596;2023-03-14T09:21:49;12.80;88.80
6738;DHT22;3406;49.902;8.596;2023-03-14T09:24:16;12.90;88.60
6738;DHT22;3406;49.902;8.596;2023-03-14T09:26:43;13.00;88.60
6738;DHT22;3406;49.902;8.596;2023-03-14T09:29:10;13.00;88.20
6738;DHT22;3406;49.902;8.596;2023-03-14T09:31:36;13.00;88.00
6738;DHT22;3406;49.902;8.596;2023-03-14T09:34:04;13.00;87.90
6738;DHT22;3406;49.902;8.596;2023-03-14T09:36:31;13.10;87.90
6738;DHT22;3406;49.902;8.596;2023-03-14T09:38:58;13.10;87.80
6738;DHT22;3406;49.902;8.596;2023-03-14T09:41:27;13.20;87.90
6738;DHT22;3406;49.902;8.596;2023-03-14T09:44:01;13.30;87.80
6738;DHT22;3406;49.902;8.596;2023-03-14T09:46:31;13.30;87.20
6738;DHT22;3406;49.902;8.596;2023-03-14T09:48:59;13.20;87.00
6738;DHT22;3406;49.902;8.596;2023-03-14T09:51:28;13.20;87.20
6738;DHT22;3406;49.902;8.596;2023-03-14T09:53:55;13.20;87.30
6738;DHT22;3406;49.902;8.596;2023-03-14T09:56:23;13.20;87.40
6738;DHT22;3406;49.902;8.596;2023-03-14T09:58:53;13.10;87.50
6738;DHT22;3406;49.902;8.596;2023-03-14T10:01:24;13.10;87.60
6738;DHT22;3406;49.902;8.596;2023-03-14T10:03:54;13.00;87.70
6738;DHT22;3406;49.902;8.596;2023-03-14T10:06:23;13.00;88.00
6738;DHT22;3406;49.902;8.596;2023-03-14T10:08:51;12.90;88.30
6738;DHT22;3406;49.902;8.596;2023-03-14T10:11:19;12.90;88.60
6738;DHT22;3406;49.902;8.596;2023-03-14T10:14:01;13.00;88.80
6738;DHT22;3406;49.902;8.596;2023-03-14T10:16:29;13.00;89.00
6738;DHT22;3406;49.902;8.596;2023-03-14T10:19:02;13.10;89.20
6738;DHT22;3406;49.902;8.596;2023-03-14T10:21:30;13.10;88.90
6738;DHT22;3406;49.902;8.596;2023-03-14T10:24:10;13.10;88.90
6738;DHT22;3406;49.902;8.596;2023-03-14T10:26:36;13.10;89.00
6738;DHT22;3406;49.902;8.596;2023-03-14T10:29:08;13.00;89.00
6738;DHT22;3406;49.902;8.596;2023-03-14T10:31:47;13.00;89.20
6738;DHT22;3406;49.902;8.596;2023-03-14T10:34:17;13.00;89.40
6738;DHT22;3406;49.902;8.596;2023-03-14T10:36:44;13.00;89.50
6738;DHT22;3406;49.902;8.596;2023-03-14T10:39:25;12.90;89.50
6738;DHT22;3406;49.902;8.596;2023-03-14T10:41:54;12.90;89.60
6738;DHT22;3406;49.902;8.596;2023-03-14T10:44:24;12.80;89.70
6738;DHT22;3406;49.902;8.596;2023-03-14T10:46:56;12.80;90.00
6738;DHT22;3406;49.902;8.596;2023-03-14T10:49:28;12.80;90.10
6738;DHT22;3406;49.902;8.596;2023-03-14T10:51:54;12.80;90.40
6738;DHT22;3406;49.902;8.596;2023-03-14T10:54:23;12.70;90.40
6738;DHT22;3406;49.902;8.596;2023-03-14T10:56:57;12.70;90.60
6738;DHT22;3406;49.902;8.596;2023-03-14T10:59:24;12.70;90.70
6738;DHT22;3406;49.902;8.596;2023-03-14T11:01:57;12.70;90.80
6738;DHT22;3406;49.902;8.596;2023-03-14T11:04:44;12.70;90.90
6738;DHT22;3406;49.902;8.596;2023-03-14T11:07:18;12.70;91.00
6738;DHT22;3406;49.902;8.596;2023-03-14T11:09:56;12.70;91.10
6738;DHT22;3406;49.902;8.596;2023-03-14T11:12:35;12.80;91.20
6738;DHT22;3406;49.902;8.596;2023-03-14T11:15:08;12.80;91.30
6738;DHT22;3406;49.902;8.596;2023-03-14T11:17:41;12.70;91.30
6738;DHT22;3406;49.902;8.596;2023-03-14T11:20:23;12.70;91.50
6738;DHT22;3406;49.902;8.596;2023-03-14T11:22:58;12.70;91.80
6738;DHT22;3406;49.902;8.596;2023-03-14T11:25:31;12.60;92.10
6738;DHT22;3406;49.902;8.596;2023-03-14T11:28:04;12.60;92.40
6738;DHT22;3406;49.902;8.596;2023-03-14T11:30:41;12.50;92.70
6738;DHT22;3406;49.902;8.596;2023-03-14T11:33:14;12.50;93.10
6738;DHT22;3406;49.902;8.596;2023-03-14T11:35:45;12.50;93.20
6738;DHT22;3406;49.902;8.596;2023-03-14T11:38:21;12.50;93.40
6738;DHT22;3406;49.902;8.596;2023-03-14T11:40:52;12.50;93.60
6738;DHT22;3406;49.902;8.596;2023-03-14T11:43:24;12.40;93.80
6738;DHT22;3406;49.902;8.596;2023-03-14T11:45:56;12.40;94.10
6738;DHT22;3406;49.902;8.596;2023-03-14T11:48:29;12.40;94.20
6738;DHT22;3406;49.902;8.596;2023-03-14T11:50:59;12.50;94.50
6738;DHT22;3406;49.902;8.596;2023-03-14T11:53:40;12.50;94.70
6738;DHT22;3406;49.902;8.596;2023-03-14T11:56:14;12.50;94.70
6738;DHT22;3406;49.902;8.596;2023-03-14T11:58:54;12.60;94.80
6738;DHT22;3406;49.902;8.596;2023-03-14T12:01:25;12.60;94.80
6738;DHT22;3406;49.902;8.596;2023-03-14T12:03:58;12.60;94.80
6738;DHT22;3406;49.902;8.596;2023-03-14T12:06:29;12.60;95.00
6738;DHT22;3406;49.902;8.596;2023-03-14T12:08:59;12.40;95.30
6738;DHT22;3406;49.902;8.596;2023-03-14T12:11:35;12.30;95.30
6738;DHT22;3406;49.902;8.596;2023-03-14T12:14:19;12.20;95.00
6738;DHT22;3406;49.902;8.596;2023-03-14T12:16:46;12.20;94.20
6738;DHT22;3406;49.902;8.596;2023-03-14T12:19:36;12.10;92.60
6738;DHT22;3406;49.902;8.596;2023-03-14T12:22:12;12.00;91.30
6738;DHT22;3406;49.902;8.596;2023-03-14T12:24:45;12.00;90.10
6738;DHT22;3406;49.902;8.596;2023-03-14T12:27:45;11.80;87.90
6738;DHT22;3406;49.902;8.596;2023-03-14T12:30:18;11.70;86.90
6738;DHT22;3406;49.902;8.596;2023-03-14T12:36:00;11.70;84.60
6738;DHT22;3406;49.902;8.596;2023-03-14T12:38:41;11.70;82.50
6738;DHT22;3406;49.902;8.596;2023-03-14T12:41:15;11.70;81.70
6738;DHT22;3406;49.902;8.596;2023-03-14T12:43:45;11.70;81.00
6738;DHT22;3406;49.902;8.596;2023-03-14T12:46:20;11.70;80.30
6738;DHT22;3406;49.902;8.596;2023-03-14T12:48:49;11.80;78.70
6738;DHT22;3406;49.902;8.596;2023-03-14T12:51:18;11.80;77.30
6738;DHT22;3406;49.902;8.596;2023-03-14T12:54:13;11.80;76.60
6738;DHT22;3406;49.902;8.596;2023-03-14T12:57:05;11.90;75.60
6738;DHT22;3406;49.902;8.596;2023-03-14T12:59:38;12.00;73.60
6738;DHT22;3406;49.902;8.596;2023-03-14T13:02:22;12.00;72.70
6738;DHT22;3406;49.902;8.596;2023-03-14T13:04:51;12.10;73.70
6738;DHT22;3406;49.902;8.596;2023-03-14T13:10:22;12.20;72.40
6738;DHT22;3406;49.902;8.596;2023-03-14T13:12:51;12.10;72.00
6738;DHT22;3406;49.902;8.596;2023-03-14T13:15:25;12.00;72.70
6738;DHT22;3406;49.902;8.596;2023-03-14T13:17:55;11.90;74.10
6738;DHT22;3406;49.902;8.596;2023-03-14T13:20:28;11.90;74.50
6738;DHT22;3406;49.902;8.596;2023-03-14T13:22:55;11.70;75.40
6738;DHT22;3406;49.902;8.596;2023-03-14T13:25:22;11.60;76.20
6738;DHT22;3406;49.902;8.596;2023-03-14T13:27:51;11.50;77.30
6738;DHT22;3406;49.902;8.596;2023-03-14T13:30:23;11.40;78.40
6738;DHT22;3406;49.902;8.596;2023-03-14T13:32:52;11.30;79.30
6738;DHT22;3406;49.902;8.596;2023-03-14T13:35:25;11.10;79.60
6738;DHT22;3406;49.902;8.596;2023-03-14T13:37:57;10.90;80.20
6738;DHT22;3406;49.902;8.596;2023-03-14T13:40:30;10.90;80.60
6738;DHT22;3406;49.902;8.596;2023-03-14T13:43:03;10.80;79.70
6738;DHT22;3406;49.902;8.596;2023-03-14T13:45:44;10.70;79.60
6738;DHT22;3406;49.902;8.596;2023-03-14T13:48:12;10.70;79.30
6738;DHT22;3406;49.902;8.596;2023-03-14T13:50:54;10.60;79.70
6738;DHT22;3406;49.902;8.596;2023-03-14T13:53:24;10.50;80.30
6738;DHT22;3406;49.902;8.596;2023-03-14T13:55:51;10.40;81.60
6738;DHT22;3406;49.902;8.596;2023-03-14T13:58:24;10.40;82.30
6738;DHT22;3406;49.902;8.596;2023-03-14T14:01:10;10.40;82.80
6738;DHT22;3406;49.902;8.596;2023-03-14T14:03:40;10.40;83.40
6738;DHT22;3406;49.902;8.596;2023-03-14T14:06:11;10.40;82.20
6738;DHT22;3406;49.902;8.596;2023-03-14T14:08:42;10.50;82.00
6738;DHT22;3406;49.902;8.596;2023-03-14T14:11:14;10.50;81.90
6738;DHT22;3406;49.902;8.596;2023-03-14T14:13:42;10.60;81.50
6738;DHT22;3406;49.902;8.596;2023-03-14T14:16:10;10.60;80.00
6738;DHT22;3406;49.902;8.596;2023-03-14T14:18:37;10.70;79.20
6738;DHT22;3406;49.902;8.596;2023-03-14T14:21:04;10.80;77.40
6738;DHT22;3406;49.902;8.596;2023-03-14T14:23:32;11.00;76.60
6738;DHT22;3406;49.902;8.596;2023-03-14T14:25:59;11.30;75.40
6738;DHT22;3406;49.902;8.596;2023-03-14T14:28:28;11.50;74.30
6738;DHT22;3406;49.902;8.596;2023-03-14T14:31:04;11.60;71.60
6738;DHT22;3406;49.902;8.596;2023-03-14T14:33:40;11.60;68.10
6738;DHT22;3406;49.902;8.596;2023-03-14T14:36:17;11.40;67.70
6738;DHT22;3406;49.902;8.596;2023-03-14T14:38:53;11.30;67.60
6738;DHT22;3406;49.902;8.596;2023-03-14T14:41:20;11.10;66.90
6738;DHT22;3406;49.902;8.596;2023-03-14T14:43:47;11.00;68.30
6738;DHT22;3406;49.902;8.596;2023-03-14T14:46:17;10.90;68.00
6738;DHT22;3406;49.902;8.596;2023-03-14T14:48:46;10.80;67.60
6738;DHT22;3406;49.902;8.596;2023-03-14T14:51:24;10.70;67.70
6738;DHT22;3406;49.902;8.596;2023-03-14T14:54:04;10.60;66.70
6738;DHT22;3406;49.902;8.596;2023-03-14T14:56:36;10.40;66.00
6738;DHT22;3406;49.902;8.596;2023-03-14T14:59:05;10.30;66.00
6738;DHT22;3406;49.902;8.596;2023-03-14T15:01:35;10.20;65.80
6738;DHT22;3406;49.902;8.596;2023-03-14T15:04:09;10.20;66.00
6738;DHT22;3406;49.902;8.596;2023-03-14T15:06:37;10.10;65.60
6738;DHT22;3406;49.902;8.596;2023-03-14T15:09:05;10.10;65.70
6738;DHT22;3406;49.902;8.596;2023-03-14T15:11:32;10.10;65.80
6738;DHT22;3406;49.902;8.596;2023-03-14T15:13:58;10.10;65.80
6738;DHT22;3406;49.902;8.596;2023-03-14T15:16:28;10.10;65.60
6738;DHT22;3406;49.902;8.596;2023-03-14T15:18:56;10.10;64.90
6738;DHT22;3406;49.902;8.596;2023-03-14T15:21:26;10.10;65.00
6738;DHT22;3406;49.902;8.596;2023-03-14T15:23:53;10.20;64.60
6738;DHT22;3406;49.902;8.596;2023-03-14T15:26:21;10.10;64.30
6738;DHT22;3406;49.902;8.596;2023-03-14T15:28:48;10.20;64.50
6738;DHT22;3406;49.902;8.596;2023-03-14T15:31:17;10.20;64.80
6738;DHT22;3406;49.902;8.596;2023-03-14T15:33:45;10.10;65.10
6738;DHT22;3406;49.902;8.596;2023-03-14T15:36:20;9.90;68.00
6738;DHT22;3406;49.902;8.596;2023-03-14T15:38:50;9.70;69.80
6738;DHT22;3406;49.902;8.596;2023-03-14T15:41:17;9.40;70.70
6738;DHT22;3406;49.902;8.596;2023-03-14T15:43:44;9.30;71.40
6738;DHT22;3406;49.902;8.596;2023-03-14T15:46:11;9.20;72.10
6738;DHT22;3406;49.902;8.596;2023-03-14T15:48:38;9.10;72.90
6738;DHT22;3406;49.902;8.596;2023-03-14T15:51:05;9.10;73.40
6738;DHT22;3406;49.902;8.596;2023-03-14T15:53:32;9.10;73.90
6738;DHT22;3406;49.902;8.596;2023-03-14T15:56:03;9.20;74.30
6738;DHT22;3406;49.902;8.596;2023-03-14T15:58:30;9.20;74.20
6738;DHT22;3406;49.902;8.596;2023-03-14T16:00:59;9.30;74.20
6738;DHT22;3406;49.902;8.596;2023-03-14T16:03:26;9.30;73.90
6738;DHT22;3406;49.902;8.596;2023-03-14T16:05:53;9.30;73.80
6738;DHT22;3406;49.902;8.596;2023-03-14T16:08:20;9.40;73.70
6738;DHT22;3406;49.902;8.596;2023-03-14T16:10:47;9.50;73.60
6738;DHT22;3406;49.902;8.596;2023-03-14T16:13:16;9.50;73.20
6738;DHT22;3406;49.902;8.596;2023-03-14T16:15:42;9.50;73.10
6738;DHT22;3406;49.902;8.596;2023-03-14T16:18:18;9.40;73.10
6738;DHT22;3406;49.902;8.596;2023-03-14T16:20:54;9.40;73.30